sensor_id;sensor_type;location;lat;lon;timestamp;pressure;altitude;pressure_sealevel;temperature;humidity
15229;BME280;7717;47.792;12.076;2023-02-18T00:00:15;97043.72;;;9.86;nan
15229;BME280;7717;47.792;12.076;2023-02-18T00:02:42;97054.09;;;10.00;nan
15229;BME280;7717;47.792;12.076;2023-02-18T00:05:07;97053.25;;;10.03;nan
15229;BME280;7717;47.792;12.076;2023-02-18T00:07:37;97051.53;;;9.99;nan
15229;BME280;7717;47.792;12.076;2023-02-18T00:10:04;97057.41;;;9.93;nan
15229;BME280;7717;47.792;12.076;2023-02-18T00:12:32;97048.88;;;9.91;nan
15229;BME280;7717;47.792;12.076;2023-02-18T00:14:57;97043.28;;;10.26;nan
15229;BME280;7717;47.792;12.076;2023-02-18T00:17:23;97052.06;;;10.48;nan
15229;BME280;7717;47.792;12.076;2023-02-18T00:19:48;97029.28;;;10.74;nan
15229;BME280;7717;47.792;12.076;2023-02-18T00:22:14;97012.47;;;11.13;nan
15229;BME280;7717;47.792;12.076;2023-02-18T00:24:39;97029.09;;;11.86;nan
15229;BME280;7717;47.792;12.076;2023-02-18T00:27:05;97033.31;;;11.78;nan
15229;BME280;7717;47.792;12.076;2023-02-18T00:29:31;97033.31;;;11.69;nan
15229;BME280;7717;47.792;12.076;2023-02-18T00:31:56;97038.41;;;11.64;nan
15229;BME280;7717;47.792;12.076;2023-02-18T00:34:22;97029.09;;;11.82;nan
15229;BME280;7717;47.792;12.076;2023-02-18T00:36:47;97033.31;;;11.72;nan
15229;BME280;7717;47.792;12.076;2023-02-18T00:39:13;97029.94;;;11.82;nan
15229;BME280;7717;47.792;12.076;2023-02-18T00:41:39;97022.28;;;11.92;nan
15229;BME280;7717;47.792;12.076;2023-02-18T00:44:04;97024.88;;;11.93;nan
15229;BME280;7717;47.792;12.076;2023-02-18T00:46:30;97014.63;;;11.99;nan
15229;BME280;7717;47.792;12.076;2023-02-18T00:48:55;97018.09;;;12.15;nan
15229;BME280;7717;47.792;12.076;2023-02-18T00:51:22;97016.41;;;12.30;nan
15229;BME280;7717;47.792;12.076;2023-02-18T00:53:48;97005.34;;;12.54;nan
15229;BME280;7717;47.792;12.076;2023-02-18T00:56:13;97003.63;;;12.57;nan
15229;BME280;7717;47.792;12.076;2023-02-18T00:58:39;97009.63;;;12.83;nan
15229;BME280;7717;47.792;12.076;2023-02-18T01:01:06;97006.19;;;12.77;nan
15229;BME280;7717;47.792;12.076;2023-02-18T01:03:32;96997.63;;;12.68;nan
15229;BME280;7717;47.792;12.076;2023-02-18T01:05:57;97001.91;;;12.66;nan
15229;BME280;7717;47.792;12.076;2023-02-18T01:08:23;96978.78;;;12.83;nan
15229;BME280;7717;47.792;12.076;2023-02-18T01:10:52;96980.50;;;12.82;nan
15229;BME280;7717;47.792;12.076;2023-02-18T01:13:18;96990.78;;;12.85;nan
15229;BME280;7717;47.792;12.076;2023-02-18T01:15:43;96995.06;;;12.72;nan
15229;BME280;7717;47.792;12.076;2023-02-18T01:18:11;96980.50;;;12.53;nan
15229;BME280;7717;47.792;12.076;2023-02-18T01:20:40;96998.50;;;12.90;nan
15229;BME280;7717;47.792;12.076;2023-02-18T01:23:06;96994.19;;;12.90;nan
15229;BME280;7717;47.792;12.076;2023-02-18T01:25:32;96996.75;;;12.93;nan
15229;BME280;7717;47.792;12.076;2023-02-18T01:27:58;97005.34;;;12.66;nan
15229;BME280;7717;47.792;12.076;2023-02-18T01:30:24;96996.75;;;12.56;nan
15229;BME280;7717;47.792;12.076;2023-02-18T01:32:49;97011.31;;;12.48;nan
15229;BME280;7717;47.792;12.076;2023-02-18T01:35:17;97000.19;;;12.55;nan
15229;BME280;7717;47.792;12.076;2023-02-18T01:37:43;97006.16;;;12.37;nan
15229;BME280;7717;47.792;12.076;2023-02-18T01:40:14;97001.03;;;12.39;nan
15229;BME280;7717;47.792;12.076;2023-02-18T01:42:40;97002.75;;;12.40;nan
15229;BME280;7717;47.792;12.076;2023-02-18T01:47:53;96999.34;;;12.49;nan
15229;BME280;7717;47.792;12.076;2023-02-18T01:50:19;96991.66;;;12.55;nan
15229;BME280;7717;47.792;12.076;2023-02-18T01:52:44;96978.81;;;12.47;nan
15229;BME280;7717;47.792;12.076;2023-02-18T01:55:09;96988.22;;;12.59;nan
15229;BME280;7717;47.792;12.076;2023-02-18T01:57:36;96972.78;;;12.45;nan
15229;BME280;7717;47.792;12.076;2023-02-18T02:00:06;96960.81;;;12.42;nan
15229;BME280;7717;47.792;12.076;2023-02-18T02:02:36;96974.53;;;12.77;nan
15229;BME280;7717;47.792;12.076;2023-02-18T02:05:03;96980.50;;;12.85;nan
15229;BME280;7717;47.792;12.076;2023-02-18T02:07:29;96965.09;;;12.77;nan
15229;BME280;7717;47.792;12.076;2023-02-18T02:09:56;96952.22;;;12.96;nan
15229;BME280;7717;47.792;12.076;2023-02-18T02:15:26;96953.09;;;12.78;nan
15229;BME280;7717;47.792;12.076;2023-02-18T02:18:15;96946.28;;;12.52;nan
15229;BME280;7717;47.792;12.076;2023-02-18T02:26:35;96958.25;;;12.56;nan
15229;BME280;7717;47.792;12.076;2023-02-18T02:35:38;96950.56;;;12.53;nan
15229;BME280;7717;47.792;12.076;2023-02-18T02:38:17;96948.84;;;12.49;nan
15229;BME280;7717;47.792;12.076;2023-02-18T02:41:38;96940.28;;;12.21;nan
15229;BME280;7717;47.792;12.076;2023-02-18T02:44:21;96946.19;;;11.97;nan
15229;BME280;7717;47.792;12.076;2023-02-18T02:46:43;96946.13;;;11.78;nan
15229;BME280;7717;47.792;12.076;2023-02-18T02:51:49;96939.28;;;11.68;nan
15229;BME280;7717;47.792;12.076;2023-02-18T02:54:19;96934.16;;;11.71;nan
15229;BME280;7717;47.792;12.076;2023-02-18T02:56:45;96939.72;;;10.84;nan
15229;BME280;7717;47.792;12.076;2023-02-18T02:59:15;96953.09;;;10.44;nan
15229;BME280;7717;47.792;12.076;2023-02-18T03:04:51;96947.56;;;11.08;nan
15229;BME280;7717;47.792;12.076;2023-02-18T03:07:40;96940.13;;;11.76;nan
15229;BME280;7717;47.792;12.076;2023-02-18T03:13:25;96952.22;;;11.97;nan
15229;BME280;7717;47.792;12.076;2023-02-18T03:15:58;96950.53;;;12.18;nan
15229;BME280;7717;47.792;12.076;2023-02-18T03:20:56;96953.00;;;11.92;nan
15229;BME280;7717;47.792;12.076;2023-02-18T03:23:28;96961.63;;;12.09;nan
15229;BME280;7717;47.792;12.076;2023-02-18T03:25:58;96955.56;;;11.92;nan
15229;BME280;7717;47.792;12.076;2023-02-18T03:28:26;96958.06;;;11.73;nan
15229;BME280;7717;47.792;12.076;2023-02-18T03:30:59;96960.56;;;11.51;nan
15229;BME280;7717;47.792;12.076;2023-02-18T03:33:39;96946.13;;;11.86;nan
15229;BME280;7717;47.792;12.076;2023-02-18T03:36:07;96942.72;;;11.85;nan
15229;BME280;7717;47.792;12.076;2023-02-18T03:38:44;96948.63;;;11.57;nan
15229;BME280;7717;47.792;12.076;2023-02-18T03:41:11;96929.78;;;11.51;nan
15229;BME280;7717;47.792;12.076;2023-02-18T03:43:39;96925.56;;;11.58;nan
15229;BME280;7717;47.792;12.076;2023-02-18T03:46:04;96933.81;;;10.92;nan
15229;BME280;7717;47.792;12.076;2023-02-18T03:48:30;96939.13;;;10.14;nan
15229;BME280;7717;47.792;12.076;2023-02-18T03:50:55;96956.25;;;10.23;nan
15229;BME280;7717;47.792;12.076;2023-02-18T03:53:21;96953.06;;;10.42;nan
15229;BME280;7717;47.792;12.076;2023-02-18T03:55:46;96951.75;;;11.00;nan
15229;BME280;7717;47.792;12.076;2023-02-18T03:58:11;96957.00;;;11.20;nan
15229;BME280;7717;47.792;12.076;2023-02-18T04:00:37;96955.38;;;11.38;nan
15229;BME280;7717;47.792;12.076;2023-02-18T04:03:02;96953.63;;;11.24;nan
15229;BME280;7717;47.792;12.076;2023-02-18T04:05:27;96941.50;;;10.98;nan
15229;BME280;7717;47.792;12.076;2023-02-18T04:07:53;96951.72;;;10.97;nan
15229;BME280;7717;47.792;12.076;2023-02-18T04:10:18;96944.78;;;10.74;nan
15229;BME280;7717;47.792;12.076;2023-02-18T04:12:44;96938.81;;;10.75;nan
15229;BME280;7717;47.792;12.076;2023-02-18T04:15:10;96955.69;;;10.55;nan
15229;BME280;7717;47.792;12.076;2023-02-18T04:17:35;96954.63;;;10.31;nan
15229;BME280;7717;47.792;12.076;2023-02-18T04:20:01;96955.78;;;9.77;nan
15229;BME280;7717;47.792;12.076;2023-02-18T04:22:27;96963.97;;;8.83;nan
15229;BME280;7717;47.792;12.076;2023-02-18T04:24:53;96969.16;;;7.87;nan
15229;BME280;7717;47.792;12.076;2023-02-18T04:27:18;96973.50;;;7.47;nan
15229;BME280;7717;47.792;12.076;2023-02-18T04:29:43;96967.75;;;7.16;nan
15229;BME280;7717;47.792;12.076;2023-02-18T04:32:09;96972.72;;;7.10;nan
15229;BME280;7717;47.792;12.076;2023-02-18T04:34:34;96977.97;;;6.78;nan
15229;BME280;7717;47.792;12.076;2023-02-18T04:36:59;96975.06;;;6.63;nan
15229;BME280;7717;47.792;12.076;2023-02-18T04:39:25;96971.09;;;6.39;nan
15229;BME280;7717;47.792;12.076;2023-02-18T04:41:50;96975.66;;;6.18;nan
15229;BME280;7717;47.792;12.076;2023-02-18T04:44:15;96983.63;;;6.32;nan
15229;BME280;7717;47.792;12.076;2023-02-18T04:46:41;96966.06;;;6.07;nan
15229;BME280;7717;47.792;12.076;2023-02-18T04:49:06;96985.41;;;6.02;nan
15229;BME280;7717;47.792;12.076;2023-02-18T04:51:32;96984.47;;;5.99;nan
15229;BME280;7717;47.792;12.076;2023-02-18T04:53:57;96983.63;;;5.68;nan
15229;BME280;7717;47.792;12.076;2023-02-18T04:56:22;96989.56;;;5.68;nan
15229;BME280;7717;47.792;12.076;2023-02-18T04:58:48;96989.13;;;5.53;nan
15229;BME280;7717;47.792;12.076;2023-02-18T05:01:13;96991.84;;;5.59;nan
15229;BME280;7717;47.792;12.076;2023-02-18T05:03:38;96990.13;;;5.58;nan
15229;BME280;7717;47.792;12.076;2023-02-18T05:06:04;96989.88;;;5.49;nan
15229;BME280;7717;47.792;12.076;2023-02-18T05:08:30;96997.22;;;5.39;nan
15229;BME280;7717;47.792;12.076;2023-02-18T05:10:55;96990.78;;;5.51;nan
15229;BME280;7717;47.792;12.076;2023-02-18T05:13:21;96987.81;;;5.66;nan
15229;BME280;7717;47.792;12.076;2023-02-18T05:15:47;96984.69;;;5.76;nan
15229;BME280;7717;47.792;12.076;2023-02-18T05:18:12;96982.56;;;5.59;nan
15229;BME280;7717;47.792;12.076;2023-02-18T05:20:38;96980.66;;;5.52;nan
15229;BME280;7717;47.792;12.076;2023-02-18T05:23:03;96988.16;;;5.48;nan
15229;BME280;7717;47.792;12.076;2023-02-18T05:25:29;96991.34;;;5.42;nan
15229;BME280;7717;47.792;12.076;2023-02-18T05:27:54;96984.56;;;5.71;nan
15229;BME280;7717;47.792;12.076;2023-02-18T05:30:19;96982.31;;;5.82;nan
15229;BME280;7717;47.792;12.076;2023-02-18T05:32:45;96991.94;;;5.94;nan
15229;BME280;7717;47.792;12.076;2023-02-18T05:35:10;96980.06;;;5.93;nan
15229;BME280;7717;47.792;12.076;2023-02-18T05:37:36;96986.66;;;5.86;nan
15229;BME280;7717;47.792;12.076;2023-02-18T05:40:02;96974.56;;;5.77;nan
15229;BME280;7717;47.792;12.076;2023-02-18T05:42:28;96986.72;;;5.88;nan
15229;BME280;7717;47.792;12.076;2023-02-18T05:44:53;96971.84;;;5.71;nan
15229;BME280;7717;47.792;12.076;2023-02-18T05:47:19;96965.38;;;5.51;nan
15229;BME280;7717;47.792;12.076;2023-02-18T05:49:44;96978.44;;;5.34;nan
15229;BME280;7717;47.792;12.076;2023-02-18T05:52:10;96993.59;;;5.31;nan
15229;BME280;7717;47.792;12.076;2023-02-18T05:54:37;96992.59;;;5.55;nan
15229;BME280;7717;47.792;12.076;2023-02-18T05:57:03;96994.34;;;5.57;nan
15229;BME280;7717;47.792;12.076;2023-02-18T05:59:28;96980.09;;;5.63;nan
15229;BME280;7717;47.792;12.076;2023-02-18T06:01:54;96993.25;;;5.80;nan
15229;BME280;7717;47.792;12.076;2023-02-18T06:04:20;96979.78;;;5.82;nan
15229;BME280;7717;47.792;12.076;2023-02-18T06:06:45;96987.50;;;5.87;nan
15229;BME280;7717;47.792;12.076;2023-02-18T06:09:11;96984.22;;;5.89;nan
15229;BME280;7717;47.792;12.076;2023-02-18T06:11:37;96979.22;;;5.92;nan
15229;BME280;7717;47.792;12.076;2023-02-18T06:14:05;96973.44;;;5.98;nan
15229;BME280;7717;47.792;12.076;2023-02-18T06:16:30;96961.56;;;5.97;nan
15229;BME280;7717;47.792;12.076;2023-02-18T06:18:56;96980.66;;;6.15;nan
15229;BME280;7717;47.792;12.076;2023-02-18T06:21:21;96974.81;;;6.19;nan
15229;BME280;7717;47.792;12.076;2023-02-18T06:23:47;96979.47;;;6.35;nan
15229;BME280;7717;47.792;12.076;2023-02-18T06:26:13;96986.34;;;6.39;nan
15229;BME280;7717;47.792;12.076;2023-02-18T06:28:38;96974.59;;;6.44;nan
15229;BME280;7717;47.792;12.076;2023-02-18T06:31:04;96966.16;;;6.45;nan
15229;BME280;7717;47.792;12.076;2023-02-18T06:33:29;96969.03;;;6.61;nan
15229;BME280;7717;47.792;12.076;2023-02-18T06:35:57;96981.34;;;6.79;nan
15229;BME280;7717;47.792;12.076;2023-02-18T06:38:23;96970.38;;;6.81;nan
15229;BME280;7717;47.792;12.076;2023-02-18T06:40:48;96971.59;;;6.61;nan
15229;BME280;7717;47.792;12.076;2023-02-18T06:43:14;96978.13;;;6.86;nan
15229;BME280;7717;47.792;12.076;2023-02-18T06:45:39;96980.03;;;6.96;nan
15229;BME280;7717;47.792;12.076;2023-02-18T06:48:05;96964.06;;;7.02;nan
15229;BME280;7717;47.792;12.076;2023-02-18T06:50:30;96968.81;;;7.26;nan
15229;BME280;7717;47.792;12.076;2023-02-18T06:52:55;96979.47;;;7.08;nan
15229;BME280;7717;47.792;12.076;2023-02-18T06:55:21;96975.63;;;7.27;nan
15229;BME280;7717;47.792;12.076;2023-02-18T06:57:47;96977.44;;;7.34;nan
15229;BME280;7717;47.792;12.076;2023-02-18T07:00:12;96972.84;;;7.16;nan
15229;BME280;7717;47.792;12.076;2023-02-18T07:02:38;96978.25;;;7.32;nan
15229;BME280;7717;47.792;12.076;2023-02-18T07:05:04;96976.38;;;7.64;nan
15229;BME280;7717;47.792;12.076;2023-02-18T07:07:30;96979.81;;;7.66;nan
15229;BME280;7717;47.792;12.076;2023-02-18T07:09:55;96983.69;;;7.91;nan
15229;BME280;7717;47.792;12.076;2023-02-18T07:12:21;96980.47;;;8.02;nan
15229;BME280;7717;47.792;12.076;2023-02-18T07:14:46;96975.50;;;8.08;nan
15229;BME280;7717;47.792;12.076;2023-02-18T07:17:12;96976.47;;;8.16;nan
15229;BME280;7717;47.792;12.076;2023-02-18T07:19:38;96989.13;;;8.10;nan
15229;BME280;7717;47.792;12.076;2023-02-18T07:22:03;96980.91;;;8.28;nan
15229;BME280;7717;47.792;12.076;2023-02-18T07:24:28;96977.94;;;8.51;nan
15229;BME280;7717;47.792;12.076;2023-02-18T07:26:54;96981.38;;;8.53;nan
15229;BME280;7717;47.792;12.076;2023-02-18T07:29:23;96974.16;;;8.80;nan
15229;BME280;7717;47.792;12.076;2023-02-18T07:31:48;96980.31;;;8.95;nan
15229;BME280;7717;47.792;12.076;2023-02-18T07:34:14;96970.94;;;8.94;nan
15229;BME280;7717;47.792;12.076;2023-02-18T07:36:39;96968.75;;;9.20;nan
15229;BME280;7717;47.792;12.076;2023-02-18T07:39:05;96970.75;;;9.43;nan
15229;BME280;7717;47.792;12.076;2023-02-18T07:41:30;96966.56;;;9.49;nan
15229;BME280;7717;47.792;12.076;2023-02-18T07:43:55;96966.44;;;9.39;nan
15229;BME280;7717;47.792;12.076;2023-02-18T07:46:21;96958.09;;;9.52;nan
15229;BME280;7717;47.792;12.076;2023-02-18T07:48:46;96944.00;;;9.16;nan
15229;BME280;7717;47.792;12.076;2023-02-18T07:51:12;96957.91;;;9.36;nan
15229;BME280;7717;47.792;12.076;2023-02-18T07:53:38;96933.28;;;9.43;nan
15229;BME280;7717;47.792;12.076;2023-02-18T07:56:04;96940.03;;;9.38;nan
15229;BME280;7717;47.792;12.076;2023-02-18T07:58:32;96944.72;;;9.78;nan
15229;BME280;7717;47.792;12.076;2023-02-18T08:00:58;96931.25;;;9.93;nan
15229;BME280;7717;47.792;12.076;2023-02-18T08:03:28;96947.56;;;10.04;nan
15229;BME280;7717;47.792;12.076;2023-02-18T08:05:54;96956.41;;;10.34;nan
15229;BME280;7717;47.792;12.076;2023-02-18T08:08:22;96960.50;;;10.18;nan
15229;BME280;7717;47.792;12.076;2023-02-18T08:10:49;96958.84;;;10.26;nan
15229;BME280;7717;47.792;12.076;2023-02-18T08:13:15;96942.78;;;10.36;nan
15229;BME280;7717;47.792;12.076;2023-02-18T08:15:40;96932.69;;;10.58;nan
15229;BME280;7717;47.792;12.076;2023-02-18T08:18:07;96949.00;;;10.69;nan
15229;BME280;7717;47.792;12.076;2023-02-18T08:20:36;96940.47;;;10.73;nan
15229;BME280;7717;47.792;12.076;2023-02-18T08:23:03;96939.00;;;11.08;nan
15229;BME280;7717;47.792;12.076;2023-02-18T08:25:28;96940.03;;;11.48;nan
15229;BME280;7717;47.792;12.076;2023-02-18T08:27:54;96925.59;;;11.63;nan
15229;BME280;7717;47.792;12.076;2023-02-18T08:30:19;96916.22;;;11.80;nan
15229;BME280;7717;47.792;12.076;2023-02-18T08:32:45;96929.13;;;12.05;nan
15229;BME280;7717;47.792;12.076;2023-02-18T08:35:11;96917.09;;;11.87;nan
15229;BME280;7717;47.792;12.076;2023-02-18T08:37:37;96913.75;;;12.08;nan
15229;BME280;7717;47.792;12.076;2023-02-18T08:40:03;96900.00;;;12.86;nan
15229;BME280;7717;47.792;12.076;2023-02-18T08:42:29;96893.88;;;13.40;nan
15229;BME280;7717;47.792;12.076;2023-02-18T08:44:54;96893.72;;;13.72;nan
15229;BME280;7717;47.792;12.076;2023-02-18T08:47:19;96884.16;;;13.91;nan
15229;BME280;7717;47.792;12.076;2023-02-18T08:49:45;96872.91;;;14.03;nan
15229;BME280;7717;47.792;12.076;2023-02-18T08:52:10;96861.63;;;14.21;nan
15229;BME280;7717;47.792;12.076;2023-02-18T08:54:36;96857.97;;;14.47;nan
15229;BME280;7717;47.792;12.076;2023-02-18T08:57:01;96863.03;;;14.56;nan
15229;BME280;7717;47.792;12.076;2023-02-18T08:59:27;96844.94;;;14.67;nan
15229;BME280;7717;47.792;12.076;2023-02-18T09:01:52;96859.47;;;14.72;nan
15229;BME280;7717;47.792;12.076;2023-02-18T09:04:17;96840.50;;;14.80;nan
15229;BME280;7717;47.792;12.076;2023-02-18T09:06:45;96819.66;;;15.00;nan
15229;BME280;7717;47.792;12.076;2023-02-18T09:09:11;96831.31;;;15.30;nan
15229;BME280;7717;47.792;12.076;2023-02-18T09:11:36;96834.09;;;15.15;nan
15229;BME280;7717;47.792;12.076;2023-02-18T09:14:02;96836.56;;;15.24;nan
15229;BME280;7717;47.792;12.076;2023-02-18T09:16:28;96826.53;;;15.66;nan
15229;BME280;7717;47.792;12.076;2023-02-18T09:18:54;96783.38;;;15.77;nan
15229;BME280;7717;47.792;12.076;2023-02-18T09:21:20;96807.97;;;16.50;nan
15229;BME280;7717;47.792;12.076;2023-02-18T09:23:47;96822.94;;;16.32;nan
15229;BME280;7717;47.792;12.076;2023-02-18T09:26:14;96781.16;;;16.09;nan
15229;BME280;7717;47.792;12.076;2023-02-18T09:28:40;96781.94;;;15.56;nan
15229;BME280;7717;47.792;12.076;2023-02-18T09:31:08;96844.84;;;16.10;nan
15229;BME280;7717;47.792;12.076;2023-02-18T09:33:35;96772.50;;;16.13;nan
15229;BME280;7717;47.792;12.076;2023-02-18T09:36:01;96751.50;;;17.56;nan
15229;BME280;7717;47.792;12.076;2023-02-18T09:38:27;96755.56;;;18.39;nan
15229;BME280;7717;47.792;12.076;2023-02-18T09:40:53;96698.66;;;18.65;nan
15229;BME280;7717;47.792;12.076;2023-02-18T09:43:39;96670.28;;;18.29;nan
15229;BME280;7717;47.792;12.076;2023-02-18T09:46:18;96629.34;;;21.02;nan
15229;BME280;7717;47.792;12.076;2023-02-18T09:48:46;96669.13;;;20.33;nan
15229;BME280;7717;47.792;12.076;2023-02-18T09:51:13;96702.13;;;18.64;nan
15229;BME280;7717;47.792;12.076;2023-02-18T09:53:40;96698.94;;;19.16;nan
15229;BME280;7717;47.792;12.076;2023-02-18T09:56:14;96669.41;;;19.73;nan
15229;BME280;7717;47.792;12.076;2023-02-18T09:58:42;96698.53;;;19.85;nan
15229;BME280;7717;47.792;12.076;2023-02-18T10:01:21;96660.69;;;19.76;nan
15229;BME280;7717;47.792;12.076;2023-02-18T10:03:49;96709.91;;;19.81;nan
15229;BME280;7717;47.792;12.076;2023-02-18T10:06:25;96636.25;;;20.56;nan
15229;BME280;7717;47.792;12.076;2023-02-18T10:08:52;96647.44;;;20.58;nan
15229;BME280;7717;47.792;12.076;2023-02-18T10:11:23;96618.72;;;20.84;nan
15229;BME280;7717;47.792;12.076;2023-02-18T10:13:53;96678.09;;;20.01;nan
15229;BME280;7717;47.792;12.076;2023-02-18T10:16:19;96705.31;;;20.39;nan
15229;BME280;7717;47.792;12.076;2023-02-18T10:18:56;96606.41;;;20.90;nan
15229;BME280;7717;47.792;12.076;2023-02-18T10:21:25;96667.34;;;20.35;nan
15229;BME280;7717;47.792;12.076;2023-02-18T10:26:23;96584.31;;;22.44;nan
15229;BME280;7717;47.792;12.076;2023-02-18T10:28:49;96598.47;;;21.57;nan
15229;BME280;7717;47.792;12.076;2023-02-18T10:31:25;96554.00;;;20.99;nan
15229;BME280;7717;47.792;12.076;2023-02-18T10:36:35;96486.44;;;22.91;nan
15229;BME280;7717;47.792;12.076;2023-02-18T10:39:18;96547.63;;;21.69;nan
15229;BME280;7717;47.792;12.076;2023-02-18T10:41:52;96583.75;;;20.46;nan
15229;BME280;7717;47.792;12.076;2023-02-18T10:52:19;96542.94;;;21.57;nan
15229;BME280;7717;47.792;12.076;2023-02-18T10:55:07;96569.53;;;21.43;nan
15229;BME280;7717;47.792;12.076;2023-02-18T10:57:33;96579.09;;;21.00;nan
15229;BME280;7717;47.792;12.076;2023-02-18T11:00:03;96524.69;;;22.55;nan
15229;BME280;7717;47.792;12.076;2023-02-18T11:02:35;96512.03;;;22.08;nan
15229;BME280;7717;47.792;12.076;2023-02-18T11:07:41;96565.00;;;21.69;nan
15229;BME280;7717;47.792;12.076;2023-02-18T11:10:17;96513.97;;;21.65;nan
15229;BME280;7717;47.792;12.076;2023-02-18T11:12:56;96481.81;;;21.44;nan
15229;BME280;7717;47.792;12.076;2023-02-18T11:15:24;96512.44;;;20.52;nan
15229;BME280;7717;47.792;12.076;2023-02-18T11:17:53;96514.78;;;20.36;nan
15229;BME280;7717;47.792;12.076;2023-02-18T11:25:38;96509.91;;;20.50;nan
15229;BME280;7717;47.792;12.076;2023-02-18T11:30:46;96426.22;;;22.22;nan
15229;BME280;7717;47.792;12.076;2023-02-18T11:33:17;96381.44;;;21.76;nan
15229;BME280;7717;47.792;12.076;2023-02-18T11:35:51;96438.31;;;20.63;nan
15229;BME280;7717;47.792;12.076;2023-02-18T11:40:53;96459.56;;;20.95;nan
15229;BME280;7717;47.792;12.076;2023-02-18T11:43:19;96413.41;;;21.99;nan
15229;BME280;7717;47.792;12.076;2023-02-18T11:45:45;96445.47;;;21.01;nan
15229;BME280;7717;47.792;12.076;2023-02-18T11:48:21;96379.75;;;21.75;nan
15229;BME280;7717;47.792;12.076;2023-02-18T11:50:52;96345.66;;;22.53;nan
15229;BME280;7717;47.792;12.076;2023-02-18T11:53:36;96320.59;;;22.68;nan
15229;BME280;7717;47.792;12.076;2023-02-18T11:56:16;96332.41;;;24.37;nan
15229;BME280;7717;47.792;12.076;2023-02-18T11:58:47;96258.06;;;25.57;nan
15229;BME280;7717;47.792;12.076;2023-02-18T12:04:14;96294.03;;;25.26;nan
15229;BME280;7717;47.792;12.076;2023-02-18T12:06:51;96291.63;;;25.37;nan
15229;BME280;7717;47.792;12.076;2023-02-18T12:09:22;96257.97;;;26.66;nan
15229;BME280;7717;47.792;12.076;2023-02-18T12:11:54;96279.06;;;26.64;nan
15229;BME280;7717;47.792;12.076;2023-02-18T12:14:21;96297.59;;;26.22;nan
15229;BME280;7717;47.792;12.076;2023-02-18T12:22:31;96263.91;;;26.42;nan
15229;BME280;7717;47.792;12.076;2023-02-18T12:28:33;96224.59;;;25.47;nan
15229;BME280;7717;47.792;12.076;2023-02-18T12:34:14;96109.75;;;27.20;nan
15229;BME280;7717;47.792;12.076;2023-02-18T12:50:52;96110.59;;;28.38;nan
15229;BME280;7717;47.792;12.076;2023-02-18T12:58:56;96081.66;;;28.04;nan
15229;BME280;7717;47.792;12.076;2023-02-18T13:01:28;96203.34;;;27.71;nan
15229;BME280;7717;47.792;12.076;2023-02-18T13:12:53;96099.31;;;27.31;nan
15229;BME280;7717;47.792;12.076;2023-02-18T13:15:45;96094.16;;;24.69;nan
15229;BME280;7717;47.792;12.076;2023-02-18T13:18:33;96117.09;;;24.78;nan
15229;BME280;7717;47.792;12.076;2023-02-18T13:21:04;96136.41;;;25.46;nan
15229;BME280;7717;47.792;12.076;2023-02-18T13:23:39;96074.25;;;24.94;nan
15229;BME280;7717;47.792;12.076;2023-02-18T13:26:10;96089.66;;;24.71;nan
15229;BME280;7717;47.792;12.076;2023-02-18T13:28:49;96058.19;;;26.06;nan
15229;BME280;7717;47.792;12.076;2023-02-18T13:34:40;96013.88;;;26.40;nan
15229;BME280;7717;47.792;12.076;2023-02-18T13:37:30;96075.25;;;24.64;nan
15229;BME280;7717;47.792;12.076;2023-02-18T13:39:58;96056.97;;;25.19;nan
15229;BME280;7717;47.792;12.076;2023-02-18T13:47:47;96050.69;;;24.94;nan
15229;BME280;7717;47.792;12.076;2023-02-18T13:50:23;96050.19;;;24.74;nan
15229;BME280;7717;47.792;12.076;2023-02-18T13:53:13;96072.75;;;24.34;nan
15229;BME280;7717;47.792;12.076;2023-02-18T13:58:53;96009.66;;;25.35;nan
15229;BME280;7717;47.792;12.076;2023-02-18T14:09:51;96074.16;;;24.68;nan
15229;BME280;7717;47.792;12.076;2023-02-18T14:20:45;96007.34;;;25.30;nan
15229;BME280;7717;47.792;12.076;2023-02-18T14:25:54;96042.19;;;25.58;nan
15229;BME280;7717;47.792;12.076;2023-02-18T14:44:52;96176.91;;;22.37;nan
15229;BME280;7717;47.792;12.076;2023-02-18T14:50:17;96199.81;;;21.96;nan
15229;BME280;7717;47.792;12.076;2023-02-18T14:52:56;96190.78;;;22.20;nan
15229;BME280;7717;47.792;12.076;2023-02-18T14:55:26;96209.84;;;21.32;nan
15229;BME280;7717;47.792;12.076;2023-02-18T14:58:07;96206.97;;;21.74;nan
15229;BME280;7717;47.792;12.076;2023-02-18T15:00:42;96215.91;;;21.13;nan
15229;BME280;7717;47.792;12.076;2023-02-18T15:03:18;96251.97;;;20.42;nan
15229;BME280;7717;47.792;12.076;2023-02-18T15:05:45;96304.75;;;20.01;nan
15229;BME280;7717;47.792;12.076;2023-02-18T15:08:22;96315.78;;;19.62;nan
15229;BME280;7717;47.792;12.076;2023-02-18T15:13:29;96343.31;;;18.95;nan
15229;BME280;7717;47.792;12.076;2023-02-18T15:15:57;96374.72;;;18.61;nan
15229;BME280;7717;47.792;12.076;2023-02-18T15:18:31;96379.59;;;18.70;nan
15229;BME280;7717;47.792;12.076;2023-02-18T15:21:00;96406.91;;;17.98;nan
15229;BME280;7717;47.792;12.076;2023-02-18T15:23:26;96418.06;;;18.02;nan
15229;BME280;7717;47.792;12.076;2023-02-18T15:25:53;96418.94;;;18.01;nan
15229;BME280;7717;47.792;12.076;2023-02-18T15:28:27;96419.78;;;18.02;nan
15229;BME280;7717;47.792;12.076;2023-02-18T15:30:58;96430.78;;;18.10;nan
15229;BME280;7717;47.792;12.076;2023-02-18T15:33:25;96427.44;;;18.05;nan
15229;BME280;7717;47.792;12.076;2023-02-18T15:35:59;96428.31;;;17.75;nan
15229;BME280;7717;47.792;12.076;2023-02-18T15:38:25;96450.25;;;17.62;nan
15229;BME280;7717;47.792;12.076;2023-02-18T15:40:52;96456.31;;;17.30;nan
15229;BME280;7717;47.792;12.076;2023-02-18T15:43:21;96458.63;;;17.07;nan
15229;BME280;7717;47.792;12.076;2023-02-18T15:45:50;96472.34;;;17.09;nan
15229;BME280;7717;47.792;12.076;2023-02-18T15:48:30;96483.41;;;17.16;nan
15229;BME280;7717;47.792;12.076;2023-02-18T15:50:57;96485.16;;;17.14;nan
15229;BME280;7717;47.792;12.076;2023-02-18T15:53:26;96469.13;;;17.01;nan
15229;BME280;7717;47.792;12.076;2023-02-18T15:55:53;96479.06;;;17.17;nan
15229;BME280;7717;47.792;12.076;2023-02-18T15:58:32;96521.06;;;16.92;nan
15229;BME280;7717;47.792;12.076;2023-02-18T16:01:01;96505.47;;;16.95;nan
15229;BME280;7717;47.792;12.076;2023-02-18T16:03:29;96512.97;;;16.68;nan